Time;durP1;ratioP1;P1;durP2;ratioP2;P2;SDS_P1;SDS_P2;PMS_P1;PMS_P2;Temp;Humidity;BMP_temperature;BMP_pressure;BME280_temperature;BME280_humidity;BME280_pressure;Samples;Min_cycle;Max_cycle;Signal;HPM_P1;HPM_P2
2023/04/30 00:00:01;;;;;;;4.38;3.17;;;;;;;8.79;100.00;96055.38;1022611;28;20117;-72
2023/04/30 00:00:31;;;;;;;4.10;2.95;;;;;;;8.76;100.00;96061.09;1024554;28;20554;-72
2023/04/30 00:01:02;;;;;;;4.72;3.17;;;;;;;8.70;100.00;96055.78;1022648;28;20279;-72
2023/04/30 00:01:33;;;;;;;5.32;2.85;;;;;;;8.67;100.00;96048.41;1026530;28;20034;-71
2023/04/30 00:02:03;;;;;;;4.03;3.10;;;;;;;8.70;100.00;96058.38;1030711;28;20273;-72
2023/04/30 00:02:34;;;;;;;6.38;3.70;;;;;;;8.65;100.00;96049.66;1034469;28;20091;-72
2023/04/30 00:03:04;;;;;;;4.78;3.22;;;;;;;8.64;100.00;96054.13;1030430;28;20037;-72
2023/04/30 00:03:35;;;;;;;4.00;3.15;;;;;;;8.66;100.00;96061.75;1030244;28;20404;-70
2023/04/30 00:04:05;;;;;;;4.38;3.00;;;;;;;8.61;100.00;96054.59;1026420;28;20023;-71
2023/04/30 00:04:36;;;;;;;5.97;3.25;;;;;;;8.63;100.00;96059.59;1022324;29;20039;-70
2023/04/30 00:05:06;;;;;;;5.18;3.72;;;;;;;8.61;100.00;96062.44;1022496;28;20090;-73
2023/04/30 00:05:37;;;;;;;3.55;2.92;;;;;;;8.59;100.00;96059.31;1018298;29;20027;-72
2023/04/30 00:06:08;;;;;;;3.35;3.00;;;;;;;8.53;100.00;96052.41;1022814;28;20039;-72
2023/04/30 00:06:38;;;;;;;4.25;3.20;;;;;;;8.57;100.00;96063.97;1030030;28;20583;-72
2023/04/30 00:07:08;;;;;;;4.28;3.10;;;;;;;8.51;100.00;96049.25;1030595;28;20034;-72
2023/04/30 00:07:41;;;;;;;5.28;3.33;;;;;;;8.57;100.00;96061.34;1030221;28;20034;-72
2023/04/30 00:08:11;;;;;;;4.53;3.42;;;;;;;8.53;100.00;96059.47;1026426;28;20121;-72
2023/04/30 00:08:42;;;;;;;4.20;3.22;;;;;;;8.52;100.00;96058.69;1026406;28;20336;-72
2023/04/30 00:09:12;;;;;;;4.15;3.10;;;;;;;8.56;100.00;96059.78;1026297;28;20030;-71
2023/04/30 00:09:43;;;;;;;4.53;3.20;;;;;;;8.57;100.00;96065.78;1030564;28;20030;-72
2023/04/30 00:10:13;;;;;;;6.75;3.38;;;;;;;8.51;100.00;96054.47;1034435;28;20038;-72
2023/04/30 00:10:44;;;;;;;5.00;3.10;;;;;;;8.56;100.00;96059.78;1030265;28;20499;-72
2023/04/30 00:11:14;;;;;;;4.10;3.35;;;;;;;8.59;100.00;96067.16;1030321;28;20033;-72
2023/04/30 00:11:45;;;;;;;5.53;3.20;;;;;;;8.58;100.00;96067.38;1026243;28;20046;-73
2023/04/30 00:12:15;;;;;;;4.28;3.40;;;;;;;8.59;100.00;96064.53;1022382;28;20744;-72
2023/04/30 00:12:46;;;;;;;4.70;3.58;;;;;;;8.58;100.00;96065.53;1022744;28;20161;-71
2023/04/30 00:13:17;;;;;;;4.53;3.28;;;;;;;8.59;100.00;96066.34;1021343;29;20032;-71
2023/04/30 00:13:48;;;;;;;10.20;3.45;;;;;;;8.61;100.00;96070.28;1022351;28;20066;-72
2023/04/30 00:14:18;;;;;;;4.68;3.53;;;;;;;8.62;100.00;96069.28;1022535;28;20278;-71
2023/04/30 00:14:49;;;;;;;5.90;3.72;;;;;;;8.57;100.00;96053.50;1022290;28;20047;-73
2023/04/30 00:15:19;;;;;;;5.13;3.60;;;;;;;8.64;100.00;96069.03;1018533;29;20067;-70
2023/04/30 00:15:50;;;;;;;6.28;3.55;;;;;;;8.59;100.00;96061.13;1018382;29;20042;-71
2023/04/30 00:16:20;;;;;;;6.45;3.65;;;;;;;8.65;100.00;96070.59;1026015;28;20031;-72
2023/04/30 00:16:51;;;;;;;5.20;3.83;;;;;;;8.62;100.00;96068.50;1026579;28;20033;-73
2023/04/30 00:17:21;;;;;;;4.47;3.38;;;;;;;8.59;100.00;96059.31;1024531;28;20031;-71
2023/04/30 00:17:52;;;;;;;4.80;3.38;;;;;;;8.67;100.00;96069.34;1022394;28;20031;-72
2023/04/30 00:18:22;;;;;;;6.10;3.17;;;;;;;8.68;100.00;96076.13;1026398;28;20038;-72
2023/04/30 00:18:52;;;;;;;6.10;3.50;;;;;;;8.65;100.00;96066.19;1017733;29;20601;-72
2023/04/30 00:19:23;;;;;;;5.68;3.47;;;;;;;8.68;100.00;96076.13;1022266;29;20508;-72
2023/04/30 00:19:54;;;;;;;4.07;3.22;;;;;;;8.68;100.00;96073.53;1026224;28;20029;-71
2023/04/30 00:20:24;;;;;;;5.55;3.30;;;;;;;8.63;100.00;96068.25;1026556;28;20084;-73
2023/04/30 00:20:55;;;;;;;5.32;3.47;;;;;;;8.66;100.00;96073.00;1026578;28;20033;-72
2023/04/30 00:21:26;;;;;;;4.28;3.33;;;;;;;8.65;100.00;96068.81;1025939;28;20034;-71
2023/04/30 00:21:57;;;;;;;4.82;3.70;;;;;;;8.61;100.00;96065.06;1024628;28;20030;-73
2023/04/30 00:22:27;;;;;;;4.25;3.42;;;;;;;8.68;100.00;96075.34;1020762;29;20298;-72
2023/04/30 00:22:58;;;;;;;7.72;4.05;;;;;;;8.67;100.00;96079.00;1018210;29;20066;-70
2023/04/30 00:23:28;;;;;;;6.57;3.60;;;;;;;8.68;100.00;96076.13;1018998;29;20047;-72
2023/04/30 00:24:02;;;;;;;5.93;3.72;;;;;;;8.68;100.00;96073.53;1018707;28;20104;-72
2023/04/30 00:24:33;;;;;;;4.55;3.35;;;;;;;8.66;100.00;96073.00;1030071;28;20886;-73
2023/04/30 00:25:04;;;;;;;4.32;3.20;;;;;;;8.65;100.00;96075.84;1029065;28;20266;-71
2023/04/30 00:25:34;;;;;;;4.70;3.25;;;;;;;8.63;100.00;96067.44;1034607;28;20049;-72
2023/04/30 00:26:04;;;;;;;4.07;3.25;;;;;;;8.66;100.00;96078.22;1034823;28;20022;-71
2023/04/30 00:26:35;;;;;;;6.55;3.97;;;;;;;8.52;100.00;96048.22;1033767;28;20085;-72
2023/04/30 00:27:05;;;;;;;6.18;3.95;;;;;;;8.63;100.00;96070.06;1034095;28;20051;-72
2023/04/30 00:27:36;;;;;;;4.07;3.28;;;;;;;8.67;100.00;96073.78;1030205;28;20026;-72
2023/04/30 00:28:06;;;;;;;5.65;3.70;;;;;;;8.67;100.00;96074.56;1034364;28;20648;-72
2023/04/30 00:28:37;;;;;;;6.60;3.35;;;;;;;8.67;100.00;96071.94;1031439;28;20021;-70
2023/04/30 00:29:07;;;;;;;7.93;3.42;;;;;;;8.68;100.00;96073.53;1026163;28;20030;-73
2023/04/30 00:29:38;;;;;;;4.95;3.58;;;;;;;8.66;100.00;96062.53;1022608;28;20030;-73
2023/04/30 00:30:08;;;;;;;5.35;3.30;;;;;;;8.70;100.00;96070.69;1020993;28;20110;-70
2023/04/30 00:30:39;;;;;;;9.02;3.65;;;;;;;8.71;100.00;96075.66;1023737;28;20027;-70
2023/04/30 00:31:09;;;;;;;5.32;3.28;;;;;;;8.71;100.00;96075.66;1025202;28;20027;-71
2023/04/30 00:31:40;;;;;;;4.70;3.55;;;;;;;8.72;100.00;96074.66;1025445;28;20027;-72
2023/04/30 00:32:11;;;;;;;5.63;3.67;;;;;;;8.73;100.00;96075.44;1025912;28;20092;-74
2023/04/30 00:32:41;;;;;;;3.33;2.95;;;;;;;8.73;100.00;96078.84;1027107;28;21218;-73
2023/04/30 00:33:12;;;;;;;3.80;2.90;;;;;;;8.74;100.00;96077.78;1022072;28;20087;-72
2023/04/30 00:33:42;;;;;;;4.85;3.42;;;;;;;8.75;100.00;96073.34;1027194;28;20030;-71
2023/04/30 00:34:12;;;;;;;4.30;3.10;;;;;;;8.70;100.00;96066.22;1025803;28;20022;-70
2023/04/30 00:34:43;;;;;;;3.72;3.30;;;;;;;8.78;100.00;96080.72;1032685;28;20014;-72
2023/04/30 00:35:14;;;;;;;4.30;3.35;;;;;;;8.77;100.00;96078.34;1035465;28;20029;-72
2023/04/30 00:35:44;;;;;;;5.38;3.20;;;;;;;8.69;100.00;96069.91;1032650;28;20098;-72
2023/04/30 00:36:15;;;;;;;3.65;3.20;;;;;;;8.75;100.00;96075.97;1025842;28;20074;-73
2023/04/30 00:36:45;;;;;;;5.28;3.22;;;;;;;8.77;100.00;96078.34;1028657;28;20033;-73
2023/04/30 00:37:16;;;;;;;5.13;3.50;;;;;;;8.77;100.00;96073.91;1022145;28;20031;-70
2023/04/30 00:37:46;;;;;;;8.65;3.30;;;;;;;8.71;100.00;96065.19;1025779;28;20022;-72
2023/04/30 00:38:17;;;;;;;4.75;3.10;;;;;;;8.79;100.00;96076.28;1024798;28;20023;-72
2023/04/30 00:38:47;;;;;;;3.67;2.90;;;;;;;8.79;100.00;96073.69;1024902;28;20078;-68
2023/04/30 00:39:18;;;;;;;3.65;2.83;;;;;;;8.78;100.00;96078.09;1017879;29;20592;-72
2023/04/30 00:39:48;;;;;;;3.78;2.85;;;;;;;8.74;100.00;96071.78;1017456;28;20016;-72
2023/04/30 00:40:19;;;;;;;6.43;3.28;;;;;;;8.78;100.00;96074.69;1027709;28;20547;-72
2023/04/30 00:40:49;;;;;;;4.43;3.38;;;;;;;8.79;100.00;96071.06;1020952;28;20038;-73
2023/04/30 00:41:20;;;;;;;3.50;3.20;;;;;;;8.74;100.00;96069.16;1029677;28;20030;-72
2023/04/30 00:41:51;;;;;;;8.20;3.38;;;;;;;8.78;100.00;96070.25;1018022;29;20012;-72
2023/04/30 00:42:21;;;;;;;6.60;3.28;;;;;;;8.83;100.00;96072.16;1016146;29;20021;-72
2023/04/30 00:42:54;;;;;;;4.97;3.40;;;;;;;8.82;100.00;96065.31;1017873;29;20695;-71
2023/04/30 00:43:25;;;;;;;6.50;3.13;;;;;;;8.82;100.00;96075.78;1018832;28;20018;-72
2023/04/30 00:43:55;;;;;;;7.38;3.20;;;;;;;8.83;100.00;96072.16;1026647;28;20798;-72
2023/04/30 00:44:25;;;;;;;4.22;3.00;;;;;;;8.84;100.00;96076.34;1033453;28;20033;-72
2023/04/30 00:44:56;;;;;;;3.95;2.97;;;;;;;8.85;100.00;96077.91;1037315;28;20029;-69
2023/04/30 00:45:26;;;;;;;6.15;3.30;;;;;;;8.86;100.00;96071.66;1030540;28;20587;-72
2023/04/30 00:45:59;;;;;;;4.13;3.20;;;;;;;8.87;100.00;96075.88;1025541;28;20031;-73
2023/04/30 00:46:30;;;;;;;3.97;3.25;;;;;;;8.88;100.00;96077.44;1022015;28;20128;-72
2023/04/30 00:47:00;;;;;;;4.07;3.67;;;;;;;8.88;100.00;96074.81;1026052;28;20266;-73
2023/04/30 00:47:31;;;;;;;5.53;2.90;;;;;;;8.88;100.00;96080.84;1029752;28;20037;-72
2023/04/30 00:48:01;;;;;;;4.50;3.72;;;;;;;8.83;100.00;96072.16;1029681;28;20027;-73
2023/04/30 00:48:32;;;;;;;4.50;3.10;;;;;;;8.86;100.00;96076.91;1035508;28;20575;-72
2023/04/30 00:49:03;;;;;;;4.40;3.58;;;;;;;8.86;100.00;96077.69;1030005;28;20057;-72
2023/04/30 00:49:34;;;;;;;5.00;3.40;;;;;;;8.85;100.00;96078.75;1032762;28;20531;-73
2023/04/30 00:50:05;;;;;;;6.50;3.80;;;;;;;8.86;100.00;96077.69;1034940;28;20281;-72
2023/04/30 00:50:35;;;;;;;3.35;3.00;;;;;;;8.82;100.00;96070.56;1029708;28;20443;-73
2023/04/30 00:51:06;;;;;;;5.40;3.40;;;;;;;8.79;100.00;96076.28;1022694;29;20138;-72
2023/04/30 00:51:37;;;;;;;4.07;2.72;;;;;;;8.84;100.00;96079.75;1022380;29;20095;-72
2023/04/30 00:52:07;;;;;;;4.43;3.45;;;;;;;8.83;100.00;96072.16;1023313;28;20075;-72
2023/04/30 00:52:37;;;;;;;6.40;3.35;;;;;;;8.85;100.00;96080.53;1020091;29;20023;-72
2023/04/30 00:53:08;;;;;;;3.90;3.40;;;;;;;8.84;100.00;96087.59;1018619;29;20027;-73
2023/04/30 00:53:39;;;;;;;5.65;2.92;;;;;;;8.79;100.00;96076.28;1027382;28;20027;-72
2023/04/30 00:54:09;;;;;;;4.43;3.33;;;;;;;8.83;100.00;96083.41;1030130;28;20014;-72
2023/04/30 00:54:40;;;;;;;6.63;3.33;;;;;;;8.82;100.00;96084.44;1025970;28;20022;-72
2023/04/30 00:55:11;;;;;;;3.83;3.10;;;;;;;8.78;100.00;96079.94;1018418;29;20058;-72
2023/04/30 00:55:41;;;;;;;3.92;3.17;;;;;;;8.73;100.00;96068.38;1022095;28;20019;-71
2023/04/30 00:56:12;;;;;;;4.50;3.13;;;;;;;8.84;100.00;96079.75;1018377;28;20062;-73
2023/04/30 00:56:42;;;;;;;5.25;3.70;;;;;;;8.78;100.00;96069.47;1025589;28;20097;-72
2023/04/30 00:57:13;;;;;;;4.25;3.33;;;;;;;8.85;100.00;96077.91;1025930;28;20074;-72
2023/04/30 00:57:43;;;;;;;4.38;3.30;;;;;;;8.82;100.00;96070.56;1028686;28;20037;-73
2023/04/30 00:58:14;;;;;;;4.88;2.90;;;;;;;8.83;100.00;96074.78;1026064;28;20038;-72
2023/04/30 00:58:44;;;;;;;4.82;2.90;;;;;;;8.79;100.00;96078.91;1025530;28;20027;-70
2023/04/30 00:59:15;;;;;;;3.85;3.13;;;;;;;8.78;100.00;96078.09;1026138;28;20018;-70
2023/04/30 00:59:46;;;;;;;5.70;3.20;;;;;;;8.73;100.00;96072.81;1022384;28;20047;-73
2023/04/30 01:00:16;;;;;;;4.40;3.17;;;;;;;8.73;100.00;96071.00;1030176;28;20027;-73
2023/04/30 01:00:47;;;;;;;4.60;3.15;;;;;;;8.80;100.00;96077.88;1030150;28;20018;-70
2023/04/30 01:01:17;;;;;;;5.50;3.25;;;;;;;8.77;100.00;96067.88;1022079;29;20517;-72
2023/04/30 01:01:48;;;;;;;4.07;3.53;;;;;;;8.81;100.00;96077.63;1018331;29;20838;-72
2023/04/30 01:02:18;;;;;;;6.00;3.38;;;;;;;8.76;100.00;96066.31;1017972;29;20429;-73
2023/04/30 01:02:49;;;;;;;3.40;3.08;;;;;;;8.83;100.00;96074.78;1020392;28;20055;-72
2023/04/30 01:03:21;;;;;;;4.60;3.20;;;;;;;8.83;100.00;96072.16;1026005;28;20027;-71
2023/04/30 01:03:52;;;;;;;6.90;3.50;;;;;;;8.84;100.00;96074.53;1021827;29;20019;-69
2023/04/30 01:04:22;;;;;;;6.00;3.20;;;;;;;8.85;100.00;96076.13;1019024;28;20279;-74
2023/04/30 01:04:53;;;;;;;8.20;3.55;;;;;;;8.83;100.00;96062.47;1026157;28;20508;-73
2023/04/30 01:05:24;;;;;;;5.90;3.25;;;;;;;8.87;100.00;96068.00;1022725;28;20030;-73
2023/04/30 01:05:55;;;;;;;9.15;3.78;;;;;;;8.85;100.00;96070.06;1030288;28;20543;-72
2023/04/30 01:06:25;;;;;;;3.70;2.85;;;;;;;8.85;100.00;96070.06;1028331;28;20277;-72
2023/04/30 01:06:56;;;;;;;8.02;4.25;;;;;;;8.83;100.00;96072.94;1030017;28;20910;-73
2023/04/30 01:07:27;;;;;;;3.83;3.05;;;;;;;8.80;100.00;96068.19;1029297;28;20041;-72
2023/04/30 01:07:57;;;;;;;3.55;3.00;;;;;;;8.80;100.00;96073.44;1015463;29;20031;-72
2023/04/30 01:08:30;;;;;;;3.60;2.97;;;;;;;8.82;100.00;96071.38;1019054;29;20302;-72
2023/04/30 01:09:01;;;;;;;6.20;3.30;;;;;;;8.76;100.00;96066.31;1021474;29;20015;-73
2023/04/30 01:09:31;;;;;;;3.20;2.80;;;;;;;8.70;100.00;96063.63;1025878;28;20270;-72
2023/04/30 01:10:02;;;;;;;4.30;2.97;;;;;;;8.78;100.00;96077.31;1026131;28;20026;-73
2023/04/30 01:10:37;;;;;;;5.15;3.50;;;;;;;8.78;100.00;96077.31;1026021;28;20769;-72
2023/04/30 01:11:34;;;;;;;4.38;2.90;;;;;;;8.76;100.00;96080.19;1030059;28;20022;-72
2023/04/30 01:12:16;;;;;;;3.95;3.05;;;;;;;8.78;100.00;96079.94;1029901;28;20291;-72
2023/04/30 01:12:59;;;;;;;3.63;3.08;;;;;;;8.70;100.00;96074.09;1031270;28;20726;-74
2023/04/30 01:13:44;;;;;;;4.38;3.05;;;;;;;8.76;100.00;96082.81;1014151;29;20256;-70
2023/04/30 01:14:24;;;;;;;7.38;3.60;;;;;;;8.75;100.00;96081.19;1017976;29;20392;-70
2023/04/30 01:15:30;;;;;;;6.82;3.25;;;;;;;8.76;100.00;96082.00;1020920;29;20290;-72
2023/04/30 01:16:12;;;;;;;4.78;3.20;;;;;;;8.73;100.00;96083.28;1032710;28;20034;-72
2023/04/30 01:16:47;;;;;;;4.38;2.92;;;;;;;8.76;100.00;96084.63;1034724;28;20527;-73
2023/04/30 01:17:26;;;;;;;4.43;3.30;;;;;;;8.73;100.00;96078.84;1026406;28;20329;-72
2023/04/30 01:18:05;;;;;;;4.05;3.03;;;;;;;8.71;100.00;96078.28;1021986;29;20270;-72
2023/04/30 01:18:47;;;;;;;6.75;3.95;;;;;;;8.70;100.00;96068.06;1017375;29;20272;-72
2023/04/30 01:19:42;;;;;;;5.03;3.25;;;;;;;8.77;100.00;96078.34;1021830;29;20874;-72
2023/04/30 01:20:13;;;;;;;5.03;3.05;;;;;;;8.76;100.00;96076.78;1018095;29;20799;-71
2023/04/30 01:20:48;;;;;;;5.95;3.40;;;;;;;8.78;100.00;96079.94;1017730;29;20274;-73
2023/04/30 01:21:19;;;;;;;3.90;2.97;;;;;;;8.74;100.00;96072.56;1021737;29;20031;-71
2023/04/30 01:21:50;;;;;;;3.95;3.17;;;;;;;8.73;100.00;96073.59;1017532;29;20279;-72
2023/04/30 01:22:29;;;;;;;4.40;3.15;;;;;;;8.79;100.00;96082.31;1025723;28;20285;-72
2023/04/30 01:23:19;;;;;;;5.30;3.47;;;;;;;8.77;100.00;96073.91;1026065;28;20495;-71
2023/04/30 01:24:12;;;;;;;5.22;3.63;;;;;;;8.73;100.00;96073.59;1018121;29;20271;-72
2023/04/30 01:25:02;;;;;;;5.37;2.80;;;;;;;8.79;100.00;96081.53;985546;28;1096144;-72
2023/04/30 01:25:38;;;;;;;4.35;2.85;;;;;;;8.80;100.00;96078.66;1025145;28;20274;-71
2023/04/30 01:26:18;;;;;;;5.53;3.20;;;;;;;8.79;100.00;96078.91;1030243;28;20675;-72
2023/04/30 01:27:19;;;;;;;4.20;3.00;;;;;;;8.83;100.00;96078.19;1025762;28;20277;-71
2023/04/30 01:28:09;;;;;;;5.00;3.28;;;;;;;8.77;100.00;96075.75;1026230;28;20246;-73
2023/04/30 01:28:42;;;;;;;4.63;3.38;;;;;;;8.80;100.00;96083.09;1027771;28;20842;-72
2023/04/30 01:29:13;;;;;;;3.97;3.13;;;;;;;8.76;100.00;96082.00;1025869;28;20258;-69
2023/04/30 01:29:44;;;;;;;6.70;3.13;;;;;;;8.74;100.00;96067.31;1021736;29;20309;-70
2023/04/30 01:30:14;;;;;;;3.53;2.78;;;;;;;8.79;100.00;96076.28;1031992;28;20268;-69
2023/04/30 01:30:45;;;;;;;3.88;2.95;;;;;;;8.82;100.00;96081.03;1030099;28;20011;-73
2023/04/30 01:31:18;;;;;;;3.42;2.90;;;;;;;8.80;100.00;96081.28;1030012;28;20049;-72
2023/04/30 01:31:49;;;;;;;3.65;3.28;;;;;;;8.74;100.00;96077.78;1030034;28;20024;-72
2023/04/30 01:32:19;;;;;;;5.53;3.13;;;;;;;8.71;100.00;96080.09;1024670;28;20397;-71
2023/04/30 01:32:50;;;;;;;4.45;3.30;;;;;;;8.76;100.00;96082.81;1025993;28;20034;-72
2023/04/30 01:33:20;;;;;;;6.57;3.40;;;;;;;8.77;100.00;96089.59;1026102;28;20026;-72
2023/04/30 01:33:51;;;;;;;4.90;3.38;;;;;;;8.77;100.00;96088.81;1026183;28;20019;-72
2023/04/30 01:34:21;;;;;;;6.95;3.50;;;;;;;8.74;100.00;96080.41;1034352;28;20018;-73
2023/04/30 01:34:52;;;;;;;4.30;3.20;;;;;;;8.80;100.00;96086.50;1030011;28;20030;-70
2023/04/30 01:35:31;;;;;;;6.78;3.20;;;;;;;8.79;100.00;96092.78;1033911;28;20119;-70
2023/04/30 01:36:18;;;;;;;5.93;3.78;;;;;;;8.81;100.00;96089.91;1030301;28;20041;-71
2023/04/30 01:36:55;;;;;;;6.82;3.08;;;;;;;8.81;100.00;96085.47;1034396;28;20264;-72
2023/04/30 01:38:04;;;;;;;4.25;2.80;;;;;;;8.84;100.00;96090.22;1034311;28;20269;-72
2023/04/30 01:39:05;;;;;;;6.00;3.40;;;;;;;8.82;100.00;96091.47;1030735;28;20277;-70
2023/04/30 01:39:45;;;;;;;;;;;;;;;8.81;100.00;96089.91;1030558;28;20376;-72
2023/04/30 01:40:42;;;;;;;4.15;2.92;;;;;;;8.69;100.00;96061.25;1031435;28;19917;-72
2023/04/30 01:41:36;;;;;;;5.30;3.55;;;;;;;8.82;100.00;96081.84;1025185;28;20278;-72
2023/04/30 01:42:13;;;;;;;4.65;3.08;;;;;;;8.80;100.00;96083.09;1024620;28;20274;-72
2023/04/30 01:42:46;;;;;;;7.10;3.40;;;;;;;8.84;100.00;96086.81;1016742;29;20290;-72
2023/04/30 01:43:45;;;;;;;4.35;3.13;;;;;;;8.84;100.00;96084.19;1014126;29;21123;-72
2023/04/30 01:44:36;;;;;;;4.63;3.22;;;;;;;8.84;100.00;96092.03;1008476;29;20273;-72
2023/04/30 01:45:21;;;;;;;3.58;2.85;;;;;;;8.79;100.00;96086.75;1026952;28;20851;-73
2023/04/30 01:46:10;;;;;;;5.00;3.45;;;;;;;8.86;100.00;96088.16;1022061;29;20270;-72
2023/04/30 01:46:41;;;;;;;4.40;3.30;;;;;;;8.83;100.00;96087.84;1018502;29;20821;-72
2023/04/30 01:47:35;;;;;;;5.03;3.30;;;;;;;8.84;100.00;96089.44;1022136;29;20302;-71
2023/04/30 01:48:13;;;;;;;6.10;3.67;;;;;;;8.81;100.00;96090.69;1030286;28;20034;-72
2023/04/30 01:49:14;;;;;;;5.25;3.63;;;;;;;8.88;100.00;96093.13;1018341;29;20267;-70
2023/04/30 01:49:55;;;;;;;10.20;3.45;;;;;;;8.86;100.00;96097.84;1013810;29;21197;-71
2023/04/30 01:50:41;;;;;;;5.57;3.50;;;;;;;8.88;100.00;96103.59;1021434;28;20137;-72
2023/04/30 01:51:19;;;;;;;4.45;3.22;;;;;;;8.86;100.00;96098.63;1026288;28;20255;-72
2023/04/30 01:51:54;;;;;;;4.95;3.15;;;;;;;8.85;100.00;96099.66;1018076;29;21018;-73
2023/04/30 01:52:40;;;;;;;4.32;3.30;;;;;;;8.85;100.00;96098.84;1021204;29;20446;-71
2023/04/30 01:53:15;;;;;;;6.63;3.40;;;;;;;8.86;100.00;96095.22;1021763;29;20294;-72
2023/04/30 01:53:46;;;;;;;6.43;3.92;;;;;;;8.86;100.00;96103.88;1017696;29;20342;-72
2023/04/30 01:54:23;;;;;;;3.90;3.00;;;;;;;8.80;100.00;96098.81;1026033;28;20376;-72
2023/04/30 01:55:02;;;;;;;5.20;3.40;;;;;;;8.85;100.00;96101.47;1021963;29;20524;-71
2023/04/30 01:55:42;;;;;;;4.55;3.70;;;;;;;8.86;100.00;96105.69;1019245;29;20661;-72
2023/04/30 01:56:24;;;;;;;;;;;;;;;8.85;100.00;96104.09;1021280;29;20298;-72
2023/04/30 01:57:05;;;;;;;5.20;3.42;;;;;;;8.80;100.00;96098.81;1021984;29;19917;-72
2023/04/30 01:57:41;;;;;;;5.68;3.50;;;;;;;8.81;100.00;96095.16;1017925;28;20362;-72
2023/04/30 01:58:12;;;;;;;4.85;3.60;;;;;;;8.86;100.00;96100.47;1026019;28;20684;-72
2023/04/30 01:58:43;;;;;;;4.82;3.28;;;;;;;8.81;100.00;96092.53;1025434;28;20317;-72
2023/04/30 01:59:13;;;;;;;4.95;3.03;;;;;;;8.84;100.00;96092.03;1018175;29;20031;-73
2023/04/30 01:59:44;;;;;;;4.45;3.40;;;;;;;8.89;100.00;96097.34;1021890;29;20090;-71
2023/04/30 02:00:16;;;;;;;5.63;3.17;;;;;;;8.85;100.00;96088.38;1022014;28;20055;-73
2023/04/30 02:00:47;;;;;;;6.13;3.58;;;;;;;8.85;100.00;96088.38;1022461;28;20703;-72
2023/04/30 02:01:37;;;;;;;4.90;3.38;;;;;;;8.85;100.00;96091.81;1026457;28;20274;-72
2023/04/30 02:02:08;;;;;;;5.30;3.40;;;;;;;8.87;100.00;96096.81;1033955;28;20046;-72
2023/04/30 02:02:38;;;;;;;6.00;3.72;;;;;;;8.87;100.00;96099.41;1037037;28;20107;-71
2023/04/30 02:03:09;;;;;;;5.50;3.28;;;;;;;8.86;100.00;96092.59;1041048;28;20037;-72
2023/04/30 02:03:39;;;;;;;6.53;3.45;;;;;;;8.85;100.00;96083.16;1038196;28;20022;-73
2023/04/30 02:04:10;;;;;;;6.40;3.78;;;;;;;8.84;100.00;96092.03;1033982;28;20033;-73
2023/04/30 02:04:41;;;;;;;4.55;3.45;;;;;;;8.79;100.00;96092.00;1034137;28;20115;-72
2023/04/30 02:05:11;;;;;;;4.63;3.38;;;;;;;8.79;100.00;96092.78;1034230;28;20045;-72
2023/04/30 02:05:41;;;;;;;4.68;3.72;;;;;;;8.77;100.00;96089.59;1034176;28;20040;-72
2023/04/30 02:06:12;;;;;;;4.32;3.30;;;;;;;8.71;100.00;96090.56;1038073;28;20037;-72
2023/04/30 02:06:42;;;;;;;4.30;3.40;;;;;;;8.74;100.00;96090.88;1034100;28;20538;-73
2023/04/30 02:07:15;;;;;;;6.32;3.55;;;;;;;8.69;100.00;96085.59;1030238;28;20026;-72
2023/04/30 02:07:46;;;;;;;4.43;3.30;;;;;;;8.69;100.00;96082.97;1023868;28;20062;-72
2023/04/30 02:08:16;;;;;;;6.30;3.72;;;;;;;8.74;100.00;96090.09;1018508;29;20911;-73
2023/04/30 02:08:47;;;;;;;4.80;3.42;;;;;;;8.73;100.00;96088.50;1019178;29;20271;-73
2023/04/30 02:09:17;;;;;;;4.32;3.28;;;;;;;8.77;100.00;96088.81;1022295;28;20413;-72
2023/04/30 02:09:48;;;;;;;4.85;3.85;;;;;;;8.67;100.00;96081.63;1023087;28;20035;-72
2023/04/30 02:10:21;;;;;;;4.80;3.25;;;;;;;8.70;100.00;96089.00;1022357;28;20038;-74
2023/04/30 02:10:52;;;;;;;5.65;3.58;;;;;;;8.68;100.00;96091.84;1029847;28;20132;-72
2023/04/30 02:11:25;;;;;;;4.20;3.47;;;;;;;8.64;100.00;96082.09;1031745;28;20767;-72
2023/04/30 02:11:56;;;;;;;5.95;3.58;;;;;;;8.66;100.00;96087.91;1029100;28;20030;-71
2023/04/30 02:12:28;;;;;;;5.97;3.60;;;;;;;8.65;100.00;96083.69;1026469;28;20659;-72
2023/04/30 02:12:59;;;;;;;4.45;3.35;;;;;;;8.68;100.00;96089.22;1031044;28;20270;-71
2023/04/30 02:13:29;;;;;;;4.35;3.60;;;;;;;8.67;100.00;96095.50;1029961;28;20281;-71
2023/04/30 02:14:00;;;;;;;5.72;3.88;;;;;;;8.60;100.00;96081.78;1030016;28;20760;-71
2023/04/30 02:14:30;;;;;;;5.75;3.50;;;;;;;8.38;100.00;96045.13;1030521;28;20026;-72
2023/04/30 02:15:02;;;;;;;6.20;4.40;;;;;;;8.67;100.00;96095.50;1029996;28;20026;-72
2023/04/30 02:15:32;;;;;;;4.57;3.47;;;;;;;8.66;100.00;96093.91;1030308;28;20037;-73
2023/04/30 02:16:03;;;;;;;5.05;3.78;;;;;;;8.64;100.00;96098.59;1018029;29;20271;-73
2023/04/30 02:16:33;;;;;;;4.80;3.55;;;;;;;8.66;100.00;96099.16;1022505;28;20040;-72
2023/04/30 02:17:05;;;;;;;5.60;3.63;;;;;;;8.64;100.00;96098.59;1026070;28;20039;-71
2023/04/30 02:17:35;;;;;;;4.78;3.50;;;;;;;8.66;100.00;96093.91;1030418;28;20322;-73
2023/04/30 02:18:05;;;;;;;5.65;3.97;;;;;;;8.63;100.00;96094.41;1029971;28;20274;-71
2023/04/30 02:18:36;;;;;;;5.82;3.75;;;;;;;8.64;100.00;96095.97;1033659;28;20034;-71
2023/04/30 02:19:07;;;;;;;4.20;3.47;;;;;;;8.64;100.00;96095.97;1025595;28;20698;-72
2023/04/30 02:19:37;;;;;;;6.80;3.60;;;;;;;8.64;100.00;96095.97;1022264;28;20139;-72
2023/04/30 02:20:08;;;;;;;4.22;3.70;;;;;;;8.67;100.00;96098.09;1029839;28;20423;-72
2023/04/30 02:20:38;;;;;;;4.22;3.78;;;;;;;8.67;100.00;96095.50;1030133;28;20030;-73
2023/04/30 02:21:09;;;;;;;5.43;3.88;;;;;;;8.65;100.00;96097.56;1037999;28;20403;-72
2023/04/30 02:21:39;;;;;;;4.32;3.50;;;;;;;8.67;100.00;96100.72;1038660;28;20033;-72
2023/04/30 02:22:10;;;;;;;5.43;4.15;;;;;;;8.65;100.00;96099.38;1033234;28;20480;-71
2023/04/30 02:22:40;;;;;;;5.22;3.65;;;;;;;8.67;100.00;96098.09;1026036;28;20473;-69
2023/04/30 02:23:11;;;;;;;4.75;3.97;;;;;;;8.66;100.00;96093.91;1022644;28;20073;-71
2023/04/30 02:23:41;;;;;;;6.15;4.47;;;;;;;8.68;100.00;96099.69;1023296;28;20023;-72
2023/04/30 02:24:12;;;;;;;7.38;4.00;;;;;;;8.68;100.00;96099.69;1022961;28;20035;-72
2023/04/30 02:24:42;;;;;;;4.18;3.53;;;;;;;8.66;100.00;96093.91;1030551;28;20034;-71
2023/04/30 02:25:13;;;;;;;4.80;3.78;;;;;;;8.71;100.00;96096.59;1034319;28;20065;-72
2023/04/30 02:25:43;;;;;;;5.53;3.80;;;;;;;8.71;100.00;96101.81;1034317;28;20018;-72
2023/04/30 02:26:14;;;;;;;4.68;3.85;;;;;;;8.72;100.00;96103.41;1034327;28;20084;-72
2023/04/30 02:26:44;;;;;;;4.53;3.70;;;;;;;8.70;100.00;96100.25;1034773;28;20006;-71
2023/04/30 02:27:15;;;;;;;7.97;3.75;;;;;;;8.69;100.00;96087.41;1038669;28;20154;-72
2023/04/30 02:27:45;;;;;;;7.45;4.32;;;;;;;8.68;100.00;96099.69;1043286;28;20040;-72
2023/04/30 02:28:16;;;;;;;7.15;3.78;;;;;;;8.70;100.00;96092.41;1038408;28;20026;-71
2023/04/30 02:28:46;;;;;;;8.05;4.25;;;;;;;8.67;100.00;96095.50;1033893;28;20482;-72
2023/04/30 02:29:17;;;;;;;5.47;4.13;;;;;;;8.64;100.00;96093.34;1030575;28;20534;-72
2023/04/30 02:29:47;;;;;;;7.20;4.80;;;;;;;8.64;100.00;96101.19;1030578;28;20030;-73
2023/04/30 02:30:19;;;;;;;5.45;4.00;;;;;;;8.60;100.00;96097.50;1030392;28;20014;-73
2023/04/30 02:30:50;;;;;;;5.97;3.50;;;;;;;8.58;100.00;96096.94;1030849;28;20010;-73
2023/04/30 02:31:20;;;;;;;4.25;3.67;;;;;;;8.54;100.00;96087.19;1034488;28;20322;-72
2023/04/30 02:31:51;;;;;;;7.15;4.68;;;;;;;8.58;100.00;96102.16;1030850;28;20018;-72
2023/04/30 02:32:21;;;;;;;6.30;4.07;;;;;;;8.56;100.00;96099.00;1024999;28;20038;-72
2023/04/30 02:32:52;;;;;;;6.22;4.32;;;;;;;8.56;100.00;96095.59;1030605;28;20018;-70
2023/04/30 02:33:22;;;;;;;6.00;4.22;;;;;;;8.52;100.00;96097.91;1030778;28;20018;-71
2023/04/30 02:33:53;;;;;;;5.50;4.13;;;;;;;8.53;100.00;96099.50;1027225;28;20022;-72
2023/04/30 02:34:24;;;;;;;7.15;4.93;;;;;;;8.43;100.00;96088.88;1023346;28;20015;-71
2023/04/30 02:34:54;;;;;;;5.60;4.15;;;;;;;8.43;100.00;96094.13;1023514;29;20378;-72
2023/04/30 02:35:25;;;;;;;6.18;4.22;;;;;;;8.52;100.00;96102.31;1023504;28;20039;-72
2023/04/30 02:35:55;;;;;;;5.68;4.25;;;;;;;8.51;100.00;96098.94;1031425;28;20030;-72
2023/04/30 02:36:26;;;;;;;5.50;3.95;;;;;;;8.48;100.00;96104.63;1031311;28;20035;-72
2023/04/30 02:36:56;;;;;;;6.70;4.63;;;;;;;8.41;100.00;96091.72;1031165;28;20037;-72